Time;durP1;ratioP1;P1;durP2;ratioP2;P2;SDS_P1;SDS_P2;PMS_P1;PMS_P2;Temp;Humidity;BMP_temperature;BMP_pressure;BME280_temperature;BME280_humidity;BME280_pressure;Samples;Min_cycle;Max_cycle;Signal;HPM_P1;HPM_P2
2021/12/30 00:01:42;;;;;;;39.13;14.93;;;;;;;;;;5010254;28;20432;-68
2021/12/30 00:04:08;;;;;;;37.60;15.50;;;;;;;;;;4990409;28;20366;-69
2021/12/30 00:06:39;;;;;;;33.00;15.63;;;;;;;;;;5009549;28;20458;-68
2021/12/30 00:09:06;;;;;;;37.03;15.40;;;;;;;;;;4991551;28;20482;-68
2021/12/30 00:11:31;;;;;;;47.38;17.00;;;;;;;;;;5009650;28;20463;-68
2021/12/30 00:13:56;;;;;;;40.88;15.73;;;;;;;;;;5008556;28;20531;-68
2021/12/30 00:16:22;;;;;;;48.95;17.17;;;;;;;;;;5008874;28;20432;-68
2021/12/30 00:18:49;;;;;;;51.83;18.77;;;;;;;;;;5009164;28;20327;-68
2021/12/30 00:21:15;;;;;;;52.63;17.50;;;;;;;;;;5008966;28;20386;-68
2021/12/30 00:23:40;;;;;;;38.40;16.80;;;;;;;;;;5008276;28;20440;-68
2021/12/30 00:26:06;;;;;;;43.78;15.82;;;;;;;;;;5008326;28;20347;-68
2021/12/30 00:28:32;;;;;;;47.33;17.85;;;;;;;;;;5008725;28;20431;-68
2021/12/30 00:30:57;;;;;;;44.58;16.33;;;;;;;;;;4990247;28;20420;-70
2021/12/30 00:33:23;;;;;;;47.70;17.23;;;;;;;;;;5007573;28;20528;-68
2021/12/30 00:35:49;;;;;;;48.50;17.77;;;;;;;;;;4990030;28;20509;-68
2021/12/30 00:38:14;;;;;;;45.67;15.07;;;;;;;;;;4990628;28;20415;-68
2021/12/30 00:40:40;;;;;;;45.55;16.65;;;;;;;;;;5009551;28;20476;-69
2021/12/30 00:43:06;;;;;;;55.03;20.27;;;;;;;;;;5008272;28;20032;-68
2021/12/30 00:45:33;;;;;;;48.63;18.67;;;;;;;;;;5008097;28;20459;-68
2021/12/30 00:47:59;;;;;;;47.75;17.15;;;;;;;;;;5008421;28;20051;-68
2021/12/30 00:50:26;;;;;;;48.33;16.80;;;;;;;;;;5008862;28;20021;-69
2021/12/30 00:52:52;;;;;;;44.13;16.25;;;;;;;;;;5003518;28;20033;-68
2021/12/30 00:55:17;;;;;;;50.13;16.77;;;;;;;;;;4991777;28;20420;-68
2021/12/30 00:57:43;;;;;;;46.60;17.40;;;;;;;;;;5007114;28;20104;-68
2021/12/30 01:00:14;;;;;;;47.58;16.77;;;;;;;;;;5004970;28;20395;-68
2021/12/30 01:02:40;;;;;;;48.03;16.75;;;;;;;;;;4971692;28;20382;-70
2021/12/30 01:05:06;;;;;;;45.38;15.68;;;;;;;;;;4975094;28;20041;-68
2021/12/30 01:07:32;;;;;;;41.97;16.00;;;;;;;;;;4991755;28;20455;-68
2021/12/30 01:09:57;;;;;;;42.60;15.68;;;;;;;;;;4990504;28;20460;-68
2021/12/30 01:12:23;;;;;;;50.20;15.40;;;;;;;;;;4991749;28;20333;-69
2021/12/30 01:14:49;;;;;;;45.97;16.23;;;;;;;;;;4973738;28;20475;-68
2021/12/30 01:17:22;;;;;;;43.70;15.50;;;;;;;;;;4974008;28;20459;-68
2021/12/30 01:19:50;;;;;;;39.97;15.23;;;;;;;;;;4992368;28;20092;-68
2021/12/30 01:22:19;;;;;;;42.10;15.95;;;;;;;;;;4974418;28;20451;-68
2021/12/30 01:24:46;;;;;;;42.03;14.73;;;;;;;;;;4991401;28;20021;-70
2021/12/30 01:27:11;;;;;;;47.75;15.77;;;;;;;;;;4991612;28;20460;-68
2021/12/30 01:29:37;;;;;;;41.65;14.20;;;;;;;;;;4992109;28;20559;-69
2021/12/30 01:32:02;;;;;;;43.50;14.98;;;;;;;;;;4973385;28;20033;-68
2021/12/30 01:34:28;;;;;;;38.38;13.85;;;;;;;;;;4990882;28;20424;-68
2021/12/30 01:36:54;;;;;;;37.92;12.98;;;;;;;;;;4991545;28;20444;-68
2021/12/30 01:39:22;;;;;;;36.13;14.10;;;;;;;;;;4990994;28;20360;-68
2021/12/30 01:41:49;;;;;;;35.00;13.68;;;;;;;;;;4990923;28;20095;-68
2021/12/30 01:44:14;;;;;;;40.08;14.93;;;;;;;;;;4991028;28;20033;-69
2021/12/30 01:46:41;;;;;;;37.75;13.73;;;;;;;;;;4990755;28;20477;-68
2021/12/30 01:49:07;;;;;;;37.28;15.13;;;;;;;;;;4991300;28;20386;-68
2021/12/30 01:51:33;;;;;;;30.67;13.13;;;;;;;;;;4992203;28;20233;-68
2021/12/30 01:53:59;;;;;;;36.53;13.32;;;;;;;;;;4991319;28;20048;-68
2021/12/30 01:56:24;;;;;;;37.88;13.60;;;;;;;;;;4990859;28;20424;-68
2021/12/30 01:58:50;;;;;;;45.40;14.45;;;;;;;;;;4957029;28;20471;-68
2021/12/30 02:01:15;;;;;;;33.85;13.30;;;;;;;;;;4990815;28;20368;-70
2021/12/30 02:03:42;;;;;;;36.17;12.95;;;;;;;;;;4973875;28;20029;-68
2021/12/30 02:06:07;;;;;;;38.45;13.50;;;;;;;;;;4990680;28;20033;-69
2021/12/30 02:08:33;;;;;;;34.20;13.65;;;;;;;;;;4990877;28;20080;-68
2021/12/30 02:10:58;;;;;;;29.73;12.75;;;;;;;;;;4989441;28;20359;-68
2021/12/30 02:13:23;;;;;;;31.92;12.85;;;;;;;;;;4989311;28;20412;-68
2021/12/30 02:15:49;;;;;;;34.33;13.52;;;;;;;;;;4989290;28;20362;-68
2021/12/30 02:18:15;;;;;;;33.58;12.65;;;;;;;;;;4991623;28;20061;-68
2021/12/30 02:20:41;;;;;;;34.25;13.05;;;;;;;;;;4972431;28;20413;-68
2021/12/30 02:23:07;;;;;;;39.05;13.38;;;;;;;;;;4990472;28;20432;-70
2021/12/30 02:25:33;;;;;;;30.52;12.30;;;;;;;;;;4988811;28;20355;-69
2021/12/30 02:27:58;;;;;;;35.28;12.35;;;;;;;;;;4989010;28;20321;-68
2021/12/30 02:30:23;;;;;;;27.40;11.70;;;;;;;;;;4990075;28;20384;-68
2021/12/30 02:32:49;;;;;;;32.78;12.85;;;;;;;;;;4990228;28;20432;-68
2021/12/30 02:35:14;;;;;;;30.45;12.18;;;;;;;;;;4990312;28;20332;-68
2021/12/30 02:37:39;;;;;;;29.10;11.25;;;;;;;;;;4990375;28;20383;-69
2021/12/30 02:40:06;;;;;;;30.58;11.88;;;;;;;;;;4990000;28;20434;-68
2021/12/30 02:42:31;;;;;;;29.92;11.95;;;;;;;;;;4989961;28;20436;-68
2021/12/30 02:44:56;;;;;;;33.25;12.55;;;;;;;;;;4988731;28;20479;-68
2021/12/30 02:47:22;;;;;;;28.08;11.75;;;;;;;;;;4990892;28;20460;-68
2021/12/30 02:49:47;;;;;;;32.47;11.98;;;;;;;;;;4988161;28;20237;-68
2021/12/30 02:52:12;;;;;;;33.80;12.15;;;;;;;;;;4989685;28;20435;-68
2021/12/30 02:54:39;;;;;;;22.08;10.77;;;;;;;;;;4988576;28;20470;-68
2021/12/30 02:57:05;;;;;;;30.30;12.60;;;;;;;;;;4972004;28;20538;-68
2021/12/30 02:59:30;;;;;;;27.45;10.98;;;;;;;;;;4971776;28;20448;-69
2021/12/30 03:01:55;;;;;;;26.05;10.82;;;;;;;;;;4990094;28;20495;-68
2021/12/30 03:04:21;;;;;;;25.42;10.82;;;;;;;;;;4987938;28;20343;-68
2021/12/30 03:06:48;;;;;;;27.60;10.15;;;;;;;;;;4989509;28;20028;-68
2021/12/30 03:09:13;;;;;;;27.20;10.88;;;;;;;;;;4987684;28;20109;-69
2021/12/30 03:11:38;;;;;;;26.00;11.48;;;;;;;;;;4990865;28;20443;-68
2021/12/30 03:14:04;;;;;;;26.90;10.35;;;;;;;;;;4989612;28;20094;-68
2021/12/30 03:16:34;;;;;;;24.92;9.82;;;;;;;;;;4987583;28;20394;-68
2021/12/30 03:18:59;;;;;;;24.58;9.98;;;;;;;;;;4972159;28;20394;-69
2021/12/30 03:21:26;;;;;;;32.13;11.05;;;;;;;;;;4972019;28;20391;-68
2021/12/30 03:23:53;;;;;;;23.92;10.90;;;;;;;;;;4971097;28;20037;-68
2021/12/30 03:26:20;;;;;;;27.20;10.48;;;;;;;;;;4971998;28;20439;-68
2021/12/30 03:28:46;;;;;;;27.00;11.50;;;;;;;;;;4971547;28;20047;-68
2021/12/30 03:31:13;;;;;;;23.70;10.13;;;;;;;;;;4989399;28;20468;-69
2021/12/30 03:33:39;;;;;;;24.73;11.50;;;;;;;;;;4990142;28;20337;-68
2021/12/30 03:36:06;;;;;;;22.85;10.07;;;;;;;;;;4989824;28;20435;-68
2021/12/30 03:38:34;;;;;;;24.98;9.93;;;;;;;;;;4989798;28;20029;-68
2021/12/30 03:41:00;;;;;;;25.58;10.65;;;;;;;;;;4971494;28;20352;-68
2021/12/30 03:43:27;;;;;;;27.08;10.43;;;;;;;;;;4971955;28;20033;-68
2021/12/30 03:45:52;;;;;;;18.08;8.45;;;;;;;;;;4988769;28;20343;-68
2021/12/30 03:48:18;;;;;;;23.52;10.07;;;;;;;;;;4971999;28;20324;-68
2021/12/30 03:50:44;;;;;;;23.80;10.68;;;;;;;;;;4989421;28;20037;-69
2021/12/30 03:53:12;;;;;;;21.17;9.88;;;;;;;;;;4969803;28;20065;-68
2021/12/30 03:55:38;;;;;;;23.58;9.73;;;;;;;;;;4970853;28;20055;-68
2021/12/30 03:58:03;;;;;;;21.85;9.18;;;;;;;;;;4989175;28;20416;-68
2021/12/30 04:00:29;;;;;;;25.02;9.48;;;;;;;;;;4971158;28;20412;-69
2021/12/30 04:02:55;;;;;;;26.45;9.32;;;;;;;;;;4988519;28;20404;-69
2021/12/30 04:05:21;;;;;;;21.73;9.95;;;;;;;;;;4989156;28;20397;-68
2021/12/30 04:07:47;;;;;;;24.80;10.07;;;;;;;;;;4970984;28;20434;-68
2021/12/30 04:10:13;;;;;;;24.30;8.57;;;;;;;;;;4988962;28;20029;-68
2021/12/30 04:12:39;;;;;;;20.52;9.30;;;;;;;;;;4988448;28;20329;-68
2021/12/30 04:15:06;;;;;;;21.13;9.30;;;;;;;;;;4971050;28;20344;-68
2021/12/30 04:17:31;;;;;;;22.40;10.07;;;;;;;;;;4970654;28;20092;-68
2021/12/30 04:19:57;;;;;;;16.80;8.23;;;;;;;;;;4989745;28;20114;-69
2021/12/30 04:22:23;;;;;;;21.35;8.15;;;;;;;;;;4988745;28;21500;-68
2021/12/30 04:24:48;;;;;;;20.60;9.15;;;;;;;;;;4989920;28;20336;-68
2021/12/30 04:27:14;;;;;;;21.65;10.00;;;;;;;;;;4970682;28;20332;-68
2021/12/30 04:29:39;;;;;;;23.17;9.20;;;;;;;;;;4991511;28;20452;-68
2021/12/30 04:32:05;;;;;;;22.45;9.30;;;;;;;;;;4992771;28;20324;-68
2021/12/30 04:34:30;;;;;;;21.58;8.70;;;;;;;;;;4993144;28;20327;-68
2021/12/30 04:36:58;;;;;;;23.25;8.48;;;;;;;;;;4974477;28;20693;-68
2021/12/30 04:39:29;;;;;;;23.80;9.60;;;;;;;;;;4992286;28;20435;-69
2021/12/30 04:41:54;;;;;;;24.98;9.32;;;;;;;;;;4993186;28;20151;-68
2021/12/30 04:44:20;;;;;;;16.42;8.77;;;;;;;;;;4990764;28;20028;-69
2021/12/30 04:46:45;;;;;;;19.05;9.65;;;;;;;;;;4974423;28;20408;-68
2021/12/30 04:49:11;;;;;;;24.00;9.63;;;;;;;;;;4991725;28;20344;-68
2021/12/30 04:51:36;;;;;;;22.60;8.85;;;;;;;;;;4973711;28;20416;-68
2021/12/30 04:54:01;;;;;;;23.58;8.80;;;;;;;;;;4990884;28;20341;-68
2021/12/30 04:56:27;;;;;;;23.25;9.45;;;;;;;;;;4991599;28;20413;-68
2021/12/30 04:58:52;;;;;;;24.23;8.35;;;;;;;;;;4992698;28;20052;-68
2021/12/30 05:01:19;;;;;;;24.38;9.65;;;;;;;;;;4991861;28;20320;-68
2021/12/30 05:03:45;;;;;;;22.15;9.30;;;;;;;;;;4991879;28;20063;-69
2021/12/30 05:06:10;;;;;;;19.98;9.07;;;;;;;;;;4989982;28;20436;-68
2021/12/30 05:08:35;;;;;;;19.13;9.60;;;;;;;;;;4974066;28;20359;-68
2021/12/30 05:11:01;;;;;;;20.98;8.45;;;;;;;;;;4991685;28;20029;-68
2021/12/30 05:13:26;;;;;;;20.42;8.30;;;;;;;;;;4990972;28;20440;-68
2021/12/30 05:15:52;;;;;;;23.05;9.40;;;;;;;;;;4973258;28;20382;-69
2021/12/30 05:18:18;;;;;;;25.60;9.70;;;;;;;;;;4992769;28;20052;-68
2021/12/30 05:20:44;;;;;;;16.85;8.25;;;;;;;;;;4991491;28;20383;-68
2021/12/30 05:23:10;;;;;;;16.25;8.77;;;;;;;;;;4973552;28;20387;-68
2021/12/30 05:25:36;;;;;;;21.63;8.68;;;;;;;;;;4973882;28;20111;-67
2021/12/30 05:28:02;;;;;;;20.38;8.65;;;;;;;;;;4973782;28;20313;-68
2021/12/30 05:30:27;;;;;;;23.52;9.27;;;;;;;;;;4991686;28;20382;-68
2021/12/30 05:32:55;;;;;;;24.73;9.60;;;;;;;;;;4991257;28;20033;-68
2021/12/30 05:35:21;;;;;;;19.10;8.32;;;;;;;;;;4973270;28;20383;-68
2021/12/30 05:37:47;;;;;;;23.13;9.55;;;;;;;;;;4989513;28;20363;-68
2021/12/30 05:40:15;;;;;;;23.35;9.85;;;;;;;;;;4990823;28;20406;-68
2021/12/30 05:42:41;;;;;;;22.03;9.07;;;;;;;;;;4972978;28;20390;-68
2021/12/30 05:45:07;;;;;;;21.27;9.05;;;;;;;;;;4991637;28;20361;-68
2021/12/30 05:47:33;;;;;;;27.20;9.65;;;;;;;;;;4990747;28;20404;-68
2021/12/30 05:50:06;;;;;;;24.75;9.23;;;;;;;;;;4990945;28;20462;-68
2021/12/30 05:52:32;;;;;;;24.40;8.98;;;;;;;;;;4990121;28;20432;-68
2021/12/30 05:54:57;;;;;;;23.95;8.85;;;;;;;;;;4989633;28;20506;-68
2021/12/30 05:57:22;;;;;;;28.05;9.85;;;;;;;;;;4972943;28;20143;-68
2021/12/30 05:59:48;;;;;;;20.42;9.32;;;;;;;;;;4991982;28;20335;-68
2021/12/30 06:02:13;;;;;;;21.50;9.02;;;;;;;;;;4991718;28;20060;-68
2021/12/30 06:04:41;;;;;;;26.58;9.32;;;;;;;;;;4990619;28;20403;-68
2021/12/30 06:07:06;;;;;;;25.85;9.43;;;;;;;;;;4973498;28;20098;-68
2021/12/30 06:09:32;;;;;;;23.52;9.82;;;;;;;;;;4990685;28;20025;-68
2021/12/30 06:11:57;;;;;;;26.77;9.95;;;;;;;;;;4990459;28;20029;-69
2021/12/30 06:14:22;;;;;;;27.42;11.07;;;;;;;;;;4972623;28;20093;-68
2021/12/30 06:16:47;;;;;;;20.17;8.38;;;;;;;;;;4990308;28;20421;-69
2021/12/30 06:19:13;;;;;;;22.45;9.43;;;;;;;;;;4988627;28;20321;-68
2021/12/30 06:21:38;;;;;;;22.80;9.43;;;;;;;;;;4972376;28;20368;-68
2021/12/30 06:24:04;;;;;;;24.30;8.95;;;;;;;;;;4991020;28;20451;-68
2021/12/30 06:26:29;;;;;;;25.23;10.68;;;;;;;;;;4972426;28;20048;-68
2021/12/30 06:28:55;;;;;;;20.92;9.30;;;;;;;;;;4989844;28;20359;-68
2021/12/30 06:31:20;;;;;;;25.15;9.45;;;;;;;;;;4991821;28;20324;-68
2021/12/30 06:33:45;;;;;;;26.45;10.57;;;;;;;;;;4990156;28;20356;-68
2021/12/30 06:36:11;;;;;;;24.17;9.75;;;;;;;;;;4988931;28;20397;-68
2021/12/30 06:38:37;;;;;;;25.90;9.70;;;;;;;;;;4990199;28;20354;-68
2021/12/30 06:41:03;;;;;;;25.10;8.75;;;;;;;;;;4972992;28;20379;-68
2021/12/30 06:43:28;;;;;;;28.02;9.43;;;;;;;;;;4972211;28;20455;-68
2021/12/30 06:45:53;;;;;;;22.35;10.27;;;;;;;;;;4972557;28;20371;-68
2021/12/30 06:48:19;;;;;;;21.77;8.38;;;;;;;;;;4990192;28;20452;-68
2021/12/30 06:50:51;;;;;;;21.58;9.60;;;;;;;;;;4989127;28;20065;-68
2021/12/30 06:53:21;;;;;;;21.63;8.73;;;;;;;;;;4983173;28;20328;-68
2021/12/30 06:55:47;;;;;;;24.75;10.30;;;;;;;;;;4989456;28;20336;-68
2021/12/30 06:58:12;;;;;;;20.05;8.82;;;;;;;;;;4989942;28;20325;-68
2021/12/30 07:00:38;;;;;;;21.17;9.38;;;;;;;;;;4971881;28;20044;-68
2021/12/30 07:03:03;;;;;;;21.00;8.93;;;;;;;;;;4991195;28;20537;-68
2021/12/30 07:05:29;;;;;;;19.45;8.98;;;;;;;;;;4971374;28;20466;-69
2021/12/30 07:07:54;;;;;;;18.05;8.60;;;;;;;;;;4988182;28;20390;-68
2021/12/30 07:10:19;;;;;;;24.98;10.27;;;;;;;;;;4971946;28;20428;-68
2021/12/30 07:12:45;;;;;;;25.60;9.63;;;;;;;;;;4990174;28;20028;-68
2021/12/30 07:15:10;;;;;;;20.88;9.60;;;;;;;;;;4989308;28;20029;-68
2021/12/30 07:17:35;;;;;;;18.92;8.43;;;;;;;;;;4972032;28;20534;-69
2021/12/30 07:20:02;;;;;;;20.02;10.10;;;;;;;;;;4988742;28;20349;-68
2021/12/30 07:22:28;;;;;;;21.92;7.93;;;;;;;;;;4989431;28;20432;-69
2021/12/30 07:24:55;;;;;;;19.48;8.65;;;;;;;;;;4990399;28;20428;-68
2021/12/30 07:27:21;;;;;;;20.50;9.90;;;;;;;;;;4972646;28;20341;-68
2021/12/30 07:29:46;;;;;;;26.25;9.73;;;;;;;;;;4989383;28;20332;-68
2021/12/30 07:32:11;;;;;;;21.88;10.10;;;;;;;;;;4990182;28;20146;-68
2021/12/30 07:34:36;;;;;;;23.27;11.07;;;;;;;;;;4989974;28;20324;-69
2021/12/30 07:37:02;;;;;;;24.35;11.32;;;;;;;;;;4990182;28;20033;-68
2021/12/30 07:39:27;;;;;;;19.27;9.48;;;;;;;;;;4988502;28;20461;-68
2021/12/30 07:41:53;;;;;;;17.10;8.63;;;;;;;;;;4989493;28;20385;-68
2021/12/30 07:44:18;;;;;;;24.15;9.15;;;;;;;;;;4990136;28;20442;-68
2021/12/30 07:46:43;;;;;;;21.75;9.45;;;;;;;;;;4989282;28;20255;-68
2021/12/30 07:49:09;;;;;;;22.20;9.70;;;;;;;;;;4989164;28;20328;-68
2021/12/30 07:51:34;;;;;;;18.73;9.40;;;;;;;;;;4971453;28;20449;-68
2021/12/30 07:53:59;;;;;;;23.20;9.57;;;;;;;;;;4989272;28;20355;-68
2021/12/30 07:56:24;;;;;;;22.65;10.05;;;;;;;;;;4989641;28;20490;-68
2021/12/30 07:58:50;;;;;;;27.77;10.38;;;;;;;;;;4987449;28;20440;-69
2021/12/30 08:01:15;;;;;;;22.20;9.35;;;;;;;;;;4989468;28;20444;-68
2021/12/30 08:03:41;;;;;;;22.10;9.43;;;;;;;;;;4974100;28;20336;-68
2021/12/30 08:06:07;;;;;;;18.67;8.68;;;;;;;;;;4991306;28;20478;-68
2021/12/30 08:08:32;;;;;;;18.05;8.45;;;;;;;;;;4993377;28;20333;-68
2021/12/30 08:10:58;;;;;;;21.17;8.98;;;;;;;;;;4974379;28;20395;-68
2021/12/30 08:13:24;;;;;;;17.73;8.38;;;;;;;;;;4958359;28;20465;-68
2021/12/30 08:15:50;;;;;;;20.38;9.68;;;;;;;;;;4993590;28;20451;-68
2021/12/30 08:18:15;;;;;;;24.15;9.52;;;;;;;;;;4975310;28;20506;-68
2021/12/30 08:20:41;;;;;;;20.63;8.48;;;;;;;;;;4994441;28;20455;-68
2021/12/30 08:23:06;;;;;;;21.15;9.48;;;;;;;;;;4992678;28;20435;-68
2021/12/30 08:25:32;;;;;;;20.15;9.02;;;;;;;;;;4992515;28;20566;-68
2021/12/30 08:27:57;;;;;;;19.70;9.95;;;;;;;;;;4992453;28;20410;-69
2021/12/30 08:30:23;;;;;;;26.45;11.32;;;;;;;;;;4974382;28;20446;-68
2021/12/30 08:32:50;;;;;;;19.23;9.02;;;;;;;;;;4992430;28;20340;-69
2021/12/30 08:35:16;;;;;;;16.90;9.52;;;;;;;;;;4974568;28;20513;-68
2021/12/30 08:37:42;;;;;;;18.30;8.95;;;;;;;;;;4992123;28;20363;-69
2021/12/30 08:40:10;;;;;;;18.52;9.30;;;;;;;;;;4974146;28;20355;-68
2021/12/30 08:42:36;;;;;;;23.95;10.07;;;;;;;;;;4993058;28;20384;-68
2021/12/30 08:45:02;;;;;;;23.85;10.23;;;;;;;;;;4992026;28;20359;-69
2021/12/30 08:47:30;;;;;;;23.33;10.45;;;;;;;;;;4992236;28;20087;-68
2021/12/30 08:49:56;;;;;;;21.20;9.68;;;;;;;;;;4992446;28;20416;-68
2021/12/30 08:52:22;;;;;;;22.17;9.93;;;;;;;;;;4991795;28;20432;-68
2021/12/30 08:54:49;;;;;;;20.08;9.50;;;;;;;;;;4957783;28;20333;-68
2021/12/30 08:57:18;;;;;;;17.52;9.32;;;;;;;;;;4974478;28;20336;-68
2021/12/30 08:59:43;;;;;;;18.17;9.50;;;;;;;;;;4991744;28;20712;-68
2021/12/30 09:02:09;;;;;;;22.58;10.82;;;;;;;;;;4991551;28;20098;-68
2021/12/30 09:04:35;;;;;;;19.55;10.07;;;;;;;;;;4993314;28;20327;-68
2021/12/30 09:07:01;;;;;;;21.88;11.05;;;;;;;;;;4973730;28;20341;-68
2021/12/30 09:09:27;;;;;;;28.33;11.70;;;;;;;;;;4991845;28;20460;-68
2021/12/30 09:11:52;;;;;;;18.52;9.32;;;;;;;;;;4990565;28;20316;-68
2021/12/30 09:14:18;;;;;;;17.80;9.55;;;;;;;;;;4973616;28;20388;-68
2021/12/30 09:16:43;;;;;;;21.75;9.85;;;;;;;;;;4991316;28;20417;-68
2021/12/30 09:19:09;;;;;;;22.23;10.82;;;;;;;;;;4974216;28;20355;-68
2021/12/30 09:21:39;;;;;;;20.60;10.20;;;;;;;;;;4991230;28;20024;-68
2021/12/30 09:24:05;;;;;;;23.25;10.70;;;;;;;;;;4991750;28;20471;-69
2021/12/30 09:26:31;;;;;;;19.63;10.13;;;;;;;;;;4973405;28;20033;-69
2021/12/30 09:28:56;;;;;;;19.70;10.38;;;;;;;;;;4992715;28;20427;-69
2021/12/30 09:31:21;;;;;;;19.92;10.05;;;;;;;;;;4991669;28;20345;-68
2021/12/30 09:33:47;;;;;;;17.40;8.48;;;;;;;;;;4991608;28;20374;-68
2021/12/30 09:36:12;;;;;;;21.10;9.90;;;;;;;;;;4990838;28;20475;-68
2021/12/30 09:38:37;;;;;;;26.40;11.07;;;;;;;;;;4991124;28;20460;-69
2021/12/30 09:41:03;;;;;;;19.48;9.73;;;;;;;;;;4990670;28;20399;-69
2021/12/30 09:43:29;;;;;;;25.80;11.20;;;;;;;;;;4973280;28;20332;-68
2021/12/30 09:45:54;;;;;;;18.55;9.98;;;;;;;;;;4992549;28;20464;-68
2021/12/30 09:48:19;;;;;;;26.30;11.93;;;;;;;;;;4993175;28;20309;-68
2021/12/30 09:50:47;;;;;;;22.77;10.85;;;;;;;;;;4992006;28;20415;-68
2021/12/30 09:53:13;;;;;;;23.73;12.45;;;;;;;;;;4990983;28;20417;-68
2021/12/30 09:55:39;;;;;;;23.38;10.38;;;;;;;;;;4989613;28;20471;-68
2021/12/30 09:58:05;;;;;;;19.70;10.05;;;;;;;;;;4990968;28;20459;-69
2021/12/30 10:00:30;;;;;;;19.55;10.23;;;;;;;;;;4992236;28;20064;-69
2021/12/30 10:02:56;;;;;;;22.08;10.55;;;;;;;;;;4989536;28;20535;-68
2021/12/30 10:05:25;;;;;;;20.42;10.10;;;;;;;;;;4989502;28;20509;-68
2021/12/30 10:08:26;;;;;;;18.45;10.07;;;;;;;;;;4990455;28;20468;-68
2021/12/30 10:10:57;;;;;;;21.58;10.05;;;;;;;;;;4991014;28;20487;-69
2021/12/30 10:13:29;;;;;;;25.05;11.95;;;;;;;;;;4990934;28;20372;-68
2021/12/30 10:16:00;;;;;;;24.27;11.88;;;;;;;;;;4972953;28;20371;-69
2021/12/30 10:18:44;;;;;;;19.83;10.02;;;;;;;;;;4973303;28;20301;-69
2021/12/30 10:21:37;;;;;;;27.27;12.25;;;;;;;;;;4972636;28;20340;-69
2021/12/30 10:24:05;;;;;;;20.55;9.63;;;;;;;;;;4989120;28;20463;-68
2021/12/30 10:26:31;;;;;;;23.58;10.10;;;;;;;;;;4972030;28;20387;-69
2021/12/30 10:29:00;;;;;;;19.98;9.85;;;;;;;;;;4989031;28;20398;-69
2021/12/30 10:31:28;;;;;;;18.35;10.35;;;;;;;;;;4972699;28;20029;-68
2021/12/30 10:34:00;;;;;;;20.17;9.95;;;;;;;;;;4990330;28;20032;-69
2021/12/30 10:36:27;;;;;;;18.58;9.10;;;;;;;;;;4990759;28;20327;-68
2021/12/30 10:38:54;;;;;;;17.38;8.90;;;;;;;;;;4972385;28;20481;-68
2021/12/30 10:41:24;;;;;;;21.60;9.90;;;;;;;;;;4971883;28;20404;-69
2021/12/30 10:43:54;;;;;;;17.83;9.63;;;;;;;;;;4972139;28;20356;-68
2021/12/30 10:46:27;;;;;;;16.98;9.02;;;;;;;;;;4990188;28;20435;-68
2021/12/30 10:49:06;;;;;;;19.95;9.55;;;;;;;;;;4990162;28;20497;-69
2021/12/30 10:51:40;;;;;;;15.85;7.75;;;;;;;;;;4972114;28;20432;-69
2021/12/30 10:54:18;;;;;;;22.45;9.65;;;;;;;;;;4989049;28;20294;-69
2021/12/30 10:57:08;;;;;;;20.13;9.73;;;;;;;;;;4990000;28;20363;-68
2021/12/30 10:59:42;;;;;;;21.33;9.32;;;;;;;;;;4989495;28;20463;-68
2021/12/30 11:02:15;;;;;;;16.70;8.68;;;;;;;;;;4989943;28;20391;-68
2021/12/30 11:05:00;;;;;;;16.90;9.10;;;;;;;;;;4989858;28;20437;-69
2021/12/30 11:07:48;;;;;;;17.67;8.77;;;;;;;;;;4989461;28;20436;-68
2021/12/30 11:10:16;;;;;;;19.52;9.13;;;;;;;;;;4989319;28;20386;-69
2021/12/30 11:12:44;;;;;;;15.15;7.75;;;;;;;;;;4990337;28;20347;-69
2021/12/30 11:15:20;;;;;;;14.90;8.20;;;;;;;;;;4987726;28;20435;-69
2021/12/30 11:17:45;;;;;;;14.30;7.38;;;;;;;;;;4990246;28;20410;-68
2021/12/30 11:20:11;;;;;;;17.45;8.52;;;;;;;;;;4989959;28;20029;-69
2021/12/30 11:22:40;;;;;;;18.27;8.07;;;;;;;;;;4988957;28;20358;-68
2021/12/30 11:25:11;;;;;;;18.58;8.50;;;;;;;;;;4991149;28;20380;-69
2021/12/30 11:27:37;;;;;;;16.63;8.32;;;;;;;;;;4971441;28;20432;-69
2021/12/30 11:30:10;;;;;;;17.17;8.70;;;;;;;;;;4987644;28;20033;-69
2021/12/30 11:32:36;;;;;;;15.52;8.55;;;;;;;;;;4989450;28;20432;-68
2021/12/30 11:35:03;;;;;;;18.85;7.97;;;;;;;;;;4971376;28;20408;-68
2021/12/30 11:37:29;;;;;;;15.00;7.38;;;;;;;;;;4971084;28;20051;-69
2021/12/30 11:39:59;;;;;;;14.43;7.68;;;;;;;;;;4988962;28;20636;-70
2021/12/30 11:42:26;;;;;;;22.75;8.68;;;;;;;;;;4989316;28;20325;-68
2021/12/30 11:44:56;;;;;;;16.10;8.15;;;;;;;;;;4971136;28;20464;-69
2021/12/30 11:47:36;;;;;;;21.83;8.90;;;;;;;;;;4988550;28;20518;-68
2021/12/30 11:50:17;;;;;;;15.13;8.48;;;;;;;;;;4989120;28;20302;-68
2021/12/30 11:52:55;;;;;;;17.23;7.13;;;;;;;;;;4970627;28;20456;-68
2021/12/30 11:55:52;;;;;;;15.98;8.73;;;;;;;;;;4990500;28;20375;-69
2021/12/30 11:58:29;;;;;;;16.92;8.27;;;;;;;;;;4988724;28;20104;-69
2021/12/30 12:00:59;;;;;;;16.65;8.23;;;;;;;;;;4989125;28;20495;-69
2021/12/30 12:03:37;;;;;;;16.50;8.35;;;;;;;;;;4990419;28;20499;-69
2021/12/30 12:06:04;;;;;;;21.55;9.43;;;;;;;;;;4989091;28;20339;-70
2021/12/30 12:08:40;;;;;;;19.98;9.55;;;;;;;;;;4987697;28;20491;-69
2021/12/30 12:11:14;;;;;;;20.38;8.43;;;;;;;;;;4988404;28;20344;-69
2021/12/30 12:13:42;;;;;;;22.00;9.40;;;;;;;;;;4971057;28;20344;-68
2021/12/30 12:16:07;;;;;;;23.35;10.77;;;;;;;;;;4970956;28;20690;-69
2021/12/30 12:18:32;;;;;;;22.20;10.52;;;;;;;;;;4989726;28;20382;-68
2021/12/30 12:21:01;;;;;;;19.05;10.00;;;;;;;;;;4988634;28;20348;-69
2021/12/30 12:23:33;;;;;;;27.15;10.00;;;;;;;;;;4970932;28;20104;-69
2021/12/30 12:26:19;;;;;;;23.50;10.65;;;;;;;;;;4969481;28;20428;-68
2021/12/30 12:28:45;;;;;;;23.48;10.73;;;;;;;;;;4988409;28;20336;-69
2021/12/30 12:31:11;;;;;;;20.98;9.88;;;;;;;;;;4988392;28;20315;-69
2021/12/30 12:33:40;;;;;;;25.77;9.75;;;;;;;;;;4971434;28;20099;-68
2021/12/30 12:36:16;;;;;;;26.02;10.68;;;;;;;;;;4989349;28;20025;-68
2021/12/30 12:38:49;;;;;;;17.55;9.77;;;;;;;;;;4970790;28;20413;-68
2021/12/30 12:41:17;;;;;;;18.85;9.57;;;;;;;;;;4988352;28;20426;-68
2021/12/30 12:43:43;;;;;;;23.33;10.05;;;;;;;;;;4970888;28;20091;-74
2021/12/30 12:46:08;;;;;;;21.98;10.77;;;;;;;;;;4971029;28;20468;-72
2021/12/30 12:48:37;;;;;;;24.08;10.77;;;;;;;;;;4989069;28;20407;-71
2021/12/30 12:51:07;;;;;;;28.60;11.35;;;;;;;;;;4974052;28;20452;-73
2021/12/30 12:53:33;;;;;;;21.60;10.18;;;;;;;;;;4991646;28;20103;-73
2021/12/30 12:56:02;;;;;;;31.98;14.35;;;;;;;;;;4991691;28;20517;-70
2021/12/30 12:58:34;;;;;;;30.52;13.35;;;;;;;;;;4992037;28;20385;-72
2021/12/30 13:01:00;;;;;;;33.08;14.88;;;;;;;;;;4991376;28;20398;-74
2021/12/30 13:03:27;;;;;;;36.17;14.90;;;;;;;;;;4957628;28;20331;-71
2021/12/30 13:06:01;;;;;;;33.40;15.05;;;;;;;;;;4973252;28;20526;-71
2021/12/30 13:08:31;;;;;;;35.47;15.18;;;;;;;;;;4991993;28;20467;-71
2021/12/30 13:10:58;;;;;;;31.30;14.63;;;;;;;;;;4991356;28;20020;-73
2021/12/30 13:13:39;;;;;;;32.97;15.30;;;;;;;;;;4990524;28;20390;-73
2021/12/30 13:16:25;;;;;;;32.25;14.50;;;;;;;;;;4974005;28;20467;-72
2021/12/30 13:19:15;;;;;;;32.47;14.77;;;;;;;;;;4973737;28;20355;-73
2021/12/30 13:21:48;;;;;;;33.03;15.63;;;;;;;;;;4991697;28;20463;-72
2021/12/30 13:24:43;;;;;;;36.72;14.65;;;;;;;;;;4991295;28;20440;-71
2021/12/30 13:27:24;;;;;;;36.53;15.35;;;;;;;;;;4989827;28;20048;-72
2021/12/30 13:29:52;;;;;;;32.83;14.88;;;;;;;;;;4991310;28;20120;-72
2021/12/30 13:32:23;;;;;;;29.55;14.93;;;;;;;;;;4999405;28;20669;-74
2021/12/30 13:34:57;;;;;;;34.85;14.18;;;;;;;;;;5000579;28;20339;-73
2021/12/30 13:37:26;;;;;;;35.35;14.75;;;;;;;;;;4992359;28;20517;-71
2021/12/30 13:39:55;;;;;;;39.85;15.70;;;;;;;;;;4992400;28;20412;-73
2021/12/30 13:42:21;;;;;;;37.03;16.70;;;;;;;;;;4994244;28;20490;-72
2021/12/30 13:44:49;;;;;;;36.33;15.85;;;;;;;;;;4988859;28;20096;-74
2021/12/30 13:47:14;;;;;;;41.00;16.10;;;;;;;;;;4990661;28;20356;-73
2021/12/30 13:49:40;;;;;;;38.75;16.73;;;;;;;;;;4992218;28;20064;-75
2021/12/30 13:52:05;;;;;;;47.33;15.93;;;;;;;;;;4999449;28;20427;-73
2021/12/30 13:54:30;;;;;;;36.47;16.00;;;;;;;;;;4980884;28;20320;-72
2021/12/30 13:56:56;;;;;;;32.70;14.57;;;;;;;;;;4992287;28;20424;-72
2021/12/30 13:59:21;;;;;;;33.40;14.80;;;;;;;;;;4990834;28;20525;-73
2021/12/30 14:01:46;;;;;;;35.90;14.43;;;;;;;;;;4989902;28;20430;-71
2021/12/30 14:04:16;;;;;;;32.92;15.23;;;;;;;;;;4989193;28;20436;-75
2021/12/30 14:06:44;;;;;;;40.95;15.77;;;;;;;;;;4985107;28;20136;-74
2021/12/30 14:09:11;;;;;;;38.65;16.55;;;;;;;;;;4989297;28;20420;-73
2021/12/30 14:11:40;;;;;;;37.75;16.88;;;;;;;;;;4990533;28;20080;-71
2021/12/30 14:14:11;;;;;;;39.22;16.08;;;;;;;;;;4991694;28;20397;-72
2021/12/30 14:16:42;;;;;;;37.83;16.23;;;;;;;;;;4990600;28;20463;-73
2021/12/30 14:19:07;;;;;;;41.50;19.77;;;;;;;;;;4990314;28;20020;-74
2021/12/30 14:21:35;;;;;;;51.58;21.02;;;;;;;;;;4992890;28;20422;-72
2021/12/30 14:24:28;;;;;;;46.28;21.05;;;;;;;;;;4999208;28;20468;-72
2021/12/30 14:26:55;;;;;;;53.28;23.35;;;;;;;;;;4978816;28;20592;-72